createdAt,value
2018-05-12T00:00:43.409Z,12.50
2018-05-12T00:03:10.928Z,9.00
2018-05-12T00:05:38.399Z,12.57
2018-05-12T00:08:05.861Z,13.10
2018-05-12T00:10:33.337Z,11.27
2018-05-12T00:13:00.804Z,10.70
2018-05-12T00:15:28.273Z,16.03
2018-05-12T00:17:56.524Z,8.20
2018-05-12T00:20:24.041Z,12.33
2018-05-12T00:22:51.495Z,12.80
2018-05-12T00:25:18.992Z,10.93
2018-05-12T00:27:46.449Z,7.70
2018-05-12T00:30:13.906Z,8.63
2018-05-12T00:32:41.385Z,9.80
2018-05-12T00:35:09.604Z,8.53
2018-05-12T00:37:37.077Z,7.87
2018-05-12T00:40:04.564Z,6.67
2018-05-12T00:42:32.025Z,17.13
2018-05-12T00:45:00.261Z,10.87
2018-05-12T00:47:27.745Z,11.60
2018-05-12T00:49:55.217Z,9.33
2018-05-12T00:52:23.442Z,12.93
2018-05-12T00:54:50.926Z,9.23
2018-05-12T00:57:18.401Z,9.23
2018-05-12T00:59:46.617Z,9.37
2018-05-12T01:02:14.109Z,7.77
2018-05-12T01:04:41.573Z,11.50
2018-05-12T01:07:09.020Z,8.30
2018-05-12T01:09:36.529Z,11.57
2018-05-12T01:12:04.063Z,9.07
2018-05-12T01:14:31.516Z,11.33
2018-05-12T01:16:59.763Z,8.30
2018-05-12T01:19:27.219Z,9.47
2018-05-12T01:21:54.698Z,24.93
2018-05-12T01:24:22.187Z,9.63
2018-05-12T01:26:49.641Z,14.47
2018-05-12T01:29:17.124Z,11.93
2018-05-12T01:31:44.596Z,11.90
2018-05-12T01:34:12.073Z,14.50
2018-05-12T01:36:39.538Z,11.57
2018-05-12T01:39:07.025Z,13.30
2018-05-12T01:41:34.490Z,9.97
2018-05-12T01:44:01.987Z,13.57
2018-05-12T01:46:29.458Z,10.30
2018-05-12T01:48:56.934Z,14.60
2018-05-12T01:51:25.175Z,10.43
2018-05-12T01:53:52.656Z,12.60
2018-05-12T01:56:20.121Z,13.40
2018-05-12T01:58:48.354Z,8.70
2018-05-12T02:01:15.850Z,9.70
2018-05-12T02:03:44.085Z,16.40
2018-05-12T02:06:11.552Z,15.93
2018-05-12T02:08:39.020Z,9.90
2018-05-12T02:11:06.487Z,11.90
2018-05-12T02:13:33.945Z,9.43
2018-05-12T02:16:02.193Z,9.90
2018-05-12T02:18:29.658Z,14.70
2018-05-12T02:20:57.116Z,11.00
2018-05-12T02:23:24.641Z,12.97
2018-05-12T02:25:52.102Z,13.30
2018-05-12T02:28:19.570Z,14.70
2018-05-12T02:30:47.045Z,10.73
2018-05-12T02:33:14.504Z,18.27
2018-05-12T02:35:43.489Z,12.43
2018-05-12T02:38:10.951Z,12.70
2018-05-12T02:40:39.197Z,14.10
2018-05-12T02:43:06.689Z,19.20
2018-05-12T02:45:34.154Z,12.27
2018-05-12T02:48:01.623Z,14.70
2018-05-12T02:50:29.861Z,15.33
2018-05-12T02:52:57.331Z,15.30
2018-05-12T02:55:25.560Z,12.67
2018-05-12T02:57:53.053Z,15.90
2018-05-12T03:00:20.575Z,13.40
2018-05-12T03:02:48.046Z,13.17
2018-05-12T03:05:15.509Z,15.57
2018-05-12T03:07:42.972Z,15.93
2018-05-12T03:10:10.449Z,13.50
2018-05-12T03:12:37.908Z,12.43
2018-05-12T03:15:05.392Z,12.80
2018-05-12T03:17:33.633Z,13.77
2018-05-12T03:20:01.098Z,13.40
2018-05-12T03:22:28.593Z,13.50
2018-05-12T03:24:56.056Z,12.17
2018-05-12T03:27:23.517Z,14.70
2018-05-12T03:29:51.018Z,16.47
2018-05-12T03:32:19.996Z,17.23
2018-05-12T03:34:47.452Z,12.90
2018-05-12T03:37:14.948Z,14.93
2018-05-12T03:39:43.183Z,14.27
2018-05-12T03:42:10.645Z,18.10
2018-05-12T03:44:39.057Z,14.67
2018-05-12T03:47:07.294Z,17.53
2018-05-12T03:49:34.756Z,13.33
2018-05-12T03:52:03.018Z,16.67
2018-05-12T03:54:30.478Z,14.70
2018-05-12T03:56:57.948Z,13.97
2018-05-12T03:59:26.932Z,18.67
2018-05-12T04:01:55.173Z,12.33
2018-05-12T04:04:34.601Z,18.57
2018-05-12T04:07:14.153Z,15.73
2018-05-12T04:12:58.139Z,20.83
2018-05-12T04:15:25.621Z,18.77
2018-05-12T04:17:54.589Z,20.97
2018-05-12T04:20:22.047Z,16.10
2018-05-12T04:22:49.534Z,19.27
2018-05-12T04:25:17.799Z,16.63
2018-05-12T04:27:45.256Z,12.30
2018-05-12T04:30:12.743Z,14.50
2018-05-12T04:32:40.214Z,14.47
2018-05-12T04:35:07.681Z,13.07
2018-05-12T04:37:35.161Z,15.20
2018-05-12T04:40:02.632Z,14.63
2018-05-12T04:42:30.108Z,14.80
2018-05-12T04:44:58.342Z,14.50
2018-05-12T04:47:25.813Z,13.63
2018-05-12T04:49:53.285Z,14.80
2018-05-12T04:52:20.765Z,15.00
2018-05-12T04:54:48.989Z,15.63
2018-05-12T04:57:16.480Z,13.87
2018-05-12T04:59:43.975Z,17.80
2018-05-12T05:02:11.438Z,12.17
2018-05-12T05:04:38.918Z,13.73
2018-05-12T05:07:06.390Z,13.80
2018-05-12T05:09:33.855Z,23.60
2018-05-12T05:12:01.359Z,14.00
2018-05-12T05:14:28.827Z,15.90
2018-05-12T05:16:56.293Z,12.80
2018-05-12T05:19:23.775Z,14.43
2018-05-12T05:21:51.286Z,12.23
2018-05-12T05:24:18.749Z,12.50
2018-05-12T05:26:46.236Z,11.60
2018-05-12T05:29:13.689Z,10.83
2018-05-12T05:31:41.149Z,16.93
2018-05-12T05:34:08.637Z,13.30
2018-05-12T05:36:36.857Z,11.97
2018-05-12T05:39:04.335Z,11.90
2018-05-12T05:41:31.819Z,12.07
2018-05-12T05:44:00.052Z,15.67
2018-05-12T05:46:27.522Z,13.23
2018-05-12T05:48:54.996Z,13.83
2018-05-12T05:51:22.505Z,14.20
2018-05-12T05:53:49.973Z,13.90
2018-05-12T05:56:17.468Z,14.90
2018-05-12T05:58:45.693Z,13.33
2018-05-12T06:01:13.157Z,15.53
2018-05-12T06:03:40.647Z,17.73
2018-05-12T06:06:08.163Z,15.80
2018-05-12T06:08:35.629Z,14.30
2018-05-12T06:11:03.109Z,13.50
2018-05-12T06:13:30.581Z,17.47
2018-05-12T06:15:58.049Z,16.80
2018-05-12T06:18:25.555Z,15.27
2018-05-12T06:20:53.053Z,14.40
2018-05-12T06:23:20.540Z,17.40
2018-05-12T06:25:48.798Z,19.07
2018-05-12T06:28:16.294Z,17.87
2018-05-12T06:30:43.747Z,16.07
2018-05-12T06:33:11.223Z,19.30
2018-05-12T06:35:38.697Z,17.20
2018-05-12T06:38:06.690Z,17.67
2018-05-12T06:40:34.935Z,21.93
2018-05-12T06:43:02.393Z,24.40
2018-05-12T06:45:29.904Z,17.57
2018-05-12T06:47:57.374Z,16.17
2018-05-12T06:50:24.845Z,20.97
2018-05-12T06:52:52.378Z,17.63
2018-05-12T06:55:19.809Z,21.60
2018-05-12T06:57:48.042Z,21.17
2018-05-12T07:00:15.588Z,19.00
2018-05-12T07:02:43.053Z,18.43
2018-05-12T07:05:10.549Z,18.83
2018-05-12T07:07:38.017Z,22.97
2018-05-12T07:10:06.247Z,21.87
2018-05-12T07:12:33.741Z,26.90
2018-05-12T07:15:01.215Z,20.53
2018-05-12T07:17:28.701Z,17.67
2018-05-12T07:19:56.194Z,21.07
2018-05-12T07:22:25.181Z,20.17
2018-05-12T07:24:52.645Z,16.90
2018-05-12T07:27:20.140Z,17.07
2018-05-12T07:29:48.360Z,16.00
2018-05-12T07:32:15.826Z,27.70
2018-05-12T07:34:43.312Z,19.53
2018-05-12T07:37:11.610Z,27.57
2018-05-12T07:39:39.064Z,20.93
2018-05-12T07:42:06.557Z,20.57
2018-05-12T07:44:34.030Z,17.00
2018-05-12T07:47:01.510Z,17.53
2018-05-12T07:49:29.773Z,18.77
2018-05-12T07:51:57.252Z,21.40
2018-05-12T07:54:25.518Z,22.23
2018-05-12T07:56:52.991Z,22.37
2018-05-12T07:59:21.223Z,17.00
2018-05-12T08:01:48.700Z,18.93
2018-05-12T08:04:16.161Z,19.13
2018-05-12T08:06:44.427Z,22.07
2018-05-12T08:09:12.654Z,20.47
2018-05-12T08:11:40.132Z,17.17
2018-05-12T08:14:07.665Z,19.93
2018-05-12T08:16:35.127Z,18.77
2018-05-12T08:19:02.601Z,20.03
2018-05-12T08:21:30.084Z,20.80
2018-05-12T08:23:57.658Z,15.40
2018-05-12T08:26:25.909Z,14.30
2018-05-12T08:28:53.393Z,18.93
2018-05-12T08:31:21.642Z,14.23
2018-05-12T08:33:49.149Z,16.40
2018-05-12T08:36:16.639Z,15.27
2018-05-12T08:38:44.093Z,15.53
2018-05-12T08:41:11.570Z,11.43
2018-05-12T08:43:39.042Z,13.80
2018-05-12T08:46:07.292Z,10.23
2018-05-12T08:48:34.860Z,11.40
2018-05-12T08:51:02.329Z,10.00
2018-05-12T08:53:29.840Z,9.90
2018-05-12T08:55:57.305Z,16.87
2018-05-12T08:58:25.792Z,10.53
2018-05-12T09:00:53.277Z,8.60
2018-05-12T09:03:21.528Z,9.13
2018-05-12T09:05:49.053Z,8.53
2018-05-12T09:08:16.560Z,7.40
2018-05-12T09:10:46.197Z,11.97
2018-05-12T09:13:14.368Z,8.73
2018-05-12T09:15:41.857Z,5.60
2018-05-12T09:18:11.382Z,4.67
2018-05-12T09:20:38.846Z,7.30
2018-05-12T09:23:07.240Z,7.50
2018-05-12T09:25:34.751Z,6.00
2018-05-12T09:28:02.954Z,9.37
2018-05-12T09:30:30.416Z,6.53
2018-05-12T09:32:57.881Z,8.33
2018-05-12T09:35:26.937Z,5.50
2018-05-12T09:37:54.358Z,5.03
2018-05-12T09:40:22.607Z,7.93
2018-05-12T09:42:51.570Z,8.63
2018-05-12T09:45:19.045Z,3.77
2018-05-12T09:47:47.382Z,3.77
2018-05-12T09:50:14.838Z,4.33
2018-05-12T09:52:42.304Z,4.27
2018-05-12T09:55:09.761Z,5.60
2018-05-12T09:57:37.219Z,3.27
2018-05-12T10:00:04.713Z,5.20
2018-05-12T10:02:32.177Z,5.50
2018-05-12T10:04:59.629Z,9.33
2018-05-12T10:07:27.133Z,4.20
2018-05-12T10:09:54.656Z,6.53
2018-05-12T10:12:22.121Z,7.03
2018-05-12T10:14:50.346Z,7.43
2018-05-12T10:17:17.805Z,6.10
2018-05-12T10:19:45.285Z,4.47
2018-05-12T10:22:12.752Z,5.30
2018-05-12T10:24:40.980Z,7.77
2018-05-12T10:27:08.490Z,4.93
2018-05-12T10:29:36.722Z,6.40
2018-05-12T10:32:04.214Z,3.40
2018-05-12T10:34:32.481Z,4.90
2018-05-12T10:36:59.959Z,5.70
2018-05-12T10:39:28.200Z,3.67
2018-05-12T10:41:55.681Z,5.10
2018-05-12T10:44:23.901Z,4.60
2018-05-12T10:46:51.366Z,4.30
2018-05-12T10:49:18.848Z,6.43
2018-05-12T10:51:46.308Z,5.40
2018-05-12T10:54:13.777Z,5.50
2018-05-12T10:56:42.041Z,4.90
2018-05-12T10:59:10.270Z,6.30
2018-05-12T11:01:37.765Z,5.70
2018-05-12T11:04:05.237Z,5.20
2018-05-12T11:06:33.558Z,4.70
2018-05-12T11:09:01.037Z,7.70
2018-05-12T11:11:28.521Z,7.13
2018-05-12T11:13:56.745Z,9.53
2018-05-12T11:16:24.223Z,4.50
2018-05-12T11:18:51.780Z,10.13
2018-05-12T11:21:19.253Z,4.80
2018-05-12T11:23:46.713Z,5.33
2018-05-12T11:26:14.174Z,7.90
2018-05-12T11:28:42.422Z,6.73
2018-05-12T11:31:09.891Z,9.00
2018-05-12T11:33:37.346Z,9.03
2018-05-12T11:36:04.841Z,7.37
2018-05-12T11:38:33.074Z,5.23
2018-05-12T11:41:00.534Z,6.93
2018-05-12T11:43:28.005Z,7.33
2018-05-12T11:45:55.473Z,7.47
2018-05-12T11:48:22.946Z,5.33
2018-05-12T11:50:51.182Z,9.00
2018-05-12T11:53:18.668Z,3.57
2018-05-12T11:55:46.131Z,4.73
2018-05-12T11:58:14.431Z,10.87
2018-05-12T12:00:41.832Z,5.73
2018-05-12T12:03:09.297Z,6.47
2018-05-12T12:05:36.772Z,5.33
2018-05-12T12:08:05.050Z,6.37
2018-05-12T12:10:33.268Z,5.73
2018-05-12T12:13:00.726Z,7.43
2018-05-12T12:15:28.209Z,3.83
2018-05-12T12:17:55.683Z,4.43
2018-05-12T12:20:23.185Z,5.63
2018-05-12T12:22:50.743Z,6.93
2018-05-12T12:25:18.212Z,3.47
2018-05-12T12:27:45.689Z,5.57
2018-05-12T12:30:13.160Z,9.37
2018-05-12T12:32:41.393Z,6.77
2018-05-12T12:35:08.869Z,5.07
2018-05-12T12:37:36.328Z,4.93
2018-05-12T12:40:03.829Z,5.07
2018-05-12T12:42:32.070Z,4.47
2018-05-12T12:44:59.627Z,4.60
2018-05-12T12:47:27.003Z,4.47
2018-05-12T12:49:54.471Z,4.40
2018-05-12T12:52:22.718Z,3.90
2018-05-12T12:54:50.184Z,4.60
2018-05-12T12:57:18.413Z,8.80
2018-05-12T12:59:45.872Z,6.40
2018-05-12T13:02:13.350Z,5.57
2018-05-12T13:04:40.857Z,4.47
2018-05-12T13:07:09.077Z,5.23
2018-05-12T13:09:36.631Z,6.80
2018-05-12T13:12:04.239Z,5.20
2018-05-12T13:14:31.636Z,6.57
2018-05-12T13:16:59.122Z,3.90
2018-05-12T13:19:26.586Z,4.03
2018-05-12T13:21:54.849Z,6.10
2018-05-12T13:24:22.341Z,6.97
2018-05-12T13:26:50.564Z,7.50
2018-05-12T13:29:18.033Z,12.67
2018-05-12T13:31:46.517Z,5.87
2018-05-12T13:34:13.999Z,5.90
2018-05-12T13:36:42.261Z,5.83
2018-05-12T13:39:09.719Z,3.40
2018-05-12T13:41:37.209Z,6.00
2018-05-12T13:44:09.205Z,6.73
2018-05-12T13:46:36.672Z,7.23
2018-05-12T13:49:04.143Z,8.80
2018-05-12T13:51:32.819Z,4.87
2018-05-12T13:54:07.224Z,5.07
2018-05-12T13:56:35.321Z,5.13
2018-05-12T13:59:03.761Z,9.20
2018-05-12T14:01:31.214Z,6.60
2018-05-12T14:03:59.542Z,8.83
2018-05-12T14:06:28.829Z,6.70
2018-05-12T14:08:57.517Z,9.67
2018-05-12T14:11:25.000Z,3.70
2018-05-12T14:13:53.998Z,6.23
2018-05-12T14:16:22.225Z,4.30
2018-05-12T14:18:49.711Z,5.73
2018-05-12T14:21:17.946Z,7.87
2018-05-12T14:23:45.404Z,9.43
2018-05-12T14:26:12.937Z,7.80
2018-05-12T14:28:40.345Z,5.00
2018-05-12T14:31:07.848Z,5.17
2018-05-12T14:33:35.447Z,6.57
2018-05-12T14:36:02.901Z,5.30
2018-05-12T14:38:30.384Z,8.23
2018-05-12T14:40:57.842Z,7.60
2018-05-12T14:43:26.064Z,9.23
2018-05-12T14:45:53.620Z,11.23
2018-05-12T14:48:21.073Z,7.80
2018-05-12T14:50:48.549Z,5.23
2018-05-12T14:53:16.020Z,7.63
2018-05-12T14:55:44.245Z,10.03
2018-05-12T14:58:11.758Z,5.70
2018-05-12T15:00:40.743Z,8.17
2018-05-12T15:03:08.194Z,9.83
2018-05-12T15:05:35.685Z,6.20
2018-05-12T15:08:03.190Z,9.50
2018-05-12T15:10:30.645Z,7.43
2018-05-12T15:12:58.132Z,8.90
2018-05-12T15:15:25.623Z,6.13
2018-05-12T15:17:53.926Z,5.23
2018-05-12T15:20:21.383Z,5.17
2018-05-12T15:22:48.863Z,6.70
2018-05-12T15:25:16.324Z,4.60
2018-05-12T15:27:43.789Z,7.77
2018-05-12T15:30:11.272Z,6.30
2018-05-12T15:32:39.492Z,7.20
2018-05-12T15:35:06.951Z,7.13
2018-05-12T15:37:34.425Z,5.10
2018-05-12T15:40:01.880Z,6.50
2018-05-12T15:42:29.351Z,7.70
2018-05-12T15:44:56.827Z,7.53
2018-05-12T15:47:25.081Z,3.80
2018-05-12T15:49:52.568Z,5.57
2018-05-12T15:52:20.024Z,4.23
2018-05-12T15:54:48.330Z,10.93
2018-05-12T15:57:15.791Z,8.03
2018-05-12T15:59:43.304Z,3.30
2018-05-12T16:02:10.808Z,7.63
2018-05-12T16:04:38.260Z,6.67
2018-05-12T16:07:06.403Z,8.13
2018-05-12T16:09:34.649Z,6.73
2018-05-12T16:12:02.851Z,6.23
2018-05-12T16:14:30.331Z,4.23
2018-05-12T16:16:57.817Z,5.20
2018-05-12T16:19:25.349Z,8.80
2018-05-12T16:21:52.805Z,6.43
2018-05-12T16:24:20.277Z,6.70
2018-05-12T16:26:47.773Z,7.70
2018-05-12T16:29:15.252Z,5.43
2018-05-12T16:31:43.551Z,6.33
2018-05-12T16:34:11.021Z,4.13
2018-05-12T16:36:38.503Z,7.50
2018-05-12T16:39:05.988Z,7.33
2018-05-12T16:41:34.230Z,4.70
2018-05-12T16:44:01.695Z,6.83
2018-05-12T16:46:29.180Z,6.37
2018-05-12T16:48:57.406Z,4.60
2018-05-12T16:51:24.866Z,7.60
2018-05-12T16:53:52.342Z,5.70
2018-05-12T16:56:19.857Z,5.80
2018-05-12T16:58:47.309Z,6.47
2018-05-12T17:01:14.780Z,9.70
2018-05-12T17:03:42.247Z,6.33
2018-05-12T17:06:09.725Z,6.70
2018-05-12T17:08:37.250Z,6.00
2018-05-12T17:11:04.704Z,10.10
2018-05-12T17:13:32.201Z,11.03
2018-05-12T17:15:59.669Z,9.40
2018-05-12T17:18:27.901Z,8.10
2018-05-12T17:20:55.381Z,4.33
2018-05-12T17:23:22.894Z,7.70
2018-05-12T17:25:50.342Z,10.60
2018-05-12T17:28:17.827Z,8.50
2018-05-12T17:30:45.288Z,6.73
2018-05-12T17:33:12.758Z,5.43
2018-05-12T17:35:40.232Z,19.47
2018-05-12T17:38:07.698Z,13.13
2018-05-12T17:40:35.175Z,12.63
2018-05-12T17:43:03.416Z,9.97
2018-05-12T17:45:30.933Z,8.63
2018-05-12T17:47:58.394Z,11.33
2018-05-12T17:50:25.884Z,12.67
2018-05-12T17:52:53.364Z,8.50
2018-05-12T17:55:21.602Z,10.23
2018-05-12T17:57:49.140Z,9.27
2018-05-12T18:00:16.606Z,6.60
2018-05-12T18:02:44.085Z,9.20
2018-05-12T18:05:11.649Z,12.60
2018-05-12T18:07:39.133Z,9.80
2018-05-12T18:10:07.358Z,8.50
2018-05-12T18:12:34.859Z,4.10
2018-05-12T18:15:03.097Z,6.00
2018-05-12T18:17:30.554Z,6.50
2018-05-12T18:19:58.029Z,12.77
2018-05-12T18:22:25.637Z,12.30
2018-05-12T18:24:53.108Z,24.47
2018-05-12T18:27:20.575Z,30.93
2018-05-12T18:29:48.052Z,23.57
2018-05-12T18:32:15.543Z,23.67
2018-05-12T18:34:43.777Z,24.50
2018-05-12T18:37:11.237Z,24.13
2018-05-12T18:39:38.719Z,28.07
2018-05-12T18:42:06.967Z,34.30
2018-05-12T18:44:34.483Z,32.40
2018-05-12T18:47:01.950Z,25.10
2018-05-12T18:49:29.419Z,22.93
2018-05-12T18:51:56.882Z,15.50
2018-05-12T18:54:24.371Z,10.57
2018-05-12T18:56:52.613Z,14.00
2018-05-12T18:59:20.092Z,19.80
2018-05-12T19:01:47.574Z,13.00
2018-05-12T19:04:15.828Z,17.60
2018-05-12T19:06:43.289Z,18.43
2018-05-12T19:09:10.773Z,22.27
2018-05-12T19:11:38.262Z,18.70
2018-05-12T19:14:05.733Z,19.53
2018-05-12T19:16:33.218Z,15.30
2018-05-12T19:19:01.446Z,39.37
2018-05-12T19:21:28.935Z,20.57
2018-05-12T19:23:56.430Z,17.93
2018-05-12T19:26:24.011Z,14.60
2018-05-12T19:28:51.523Z,19.50
2018-05-12T19:31:18.999Z,17.63
2018-05-12T19:33:46.469Z,9.50
2018-05-12T19:36:13.960Z,17.23
2018-05-12T19:38:41.482Z,27.80
2018-05-12T19:41:09.703Z,29.10
2018-05-12T19:43:37.241Z,13.50
2018-05-12T19:46:05.427Z,13.30
2018-05-12T19:48:32.922Z,9.03
2018-05-12T19:51:01.149Z,8.43
2018-05-12T19:53:28.633Z,10.87
2018-05-12T19:55:56.143Z,12.70
2018-05-12T19:58:23.605Z,7.47
2018-05-12T20:00:51.066Z,10.53
2018-05-12T20:03:18.565Z,11.23
2018-05-12T20:05:46.037Z,11.83
2018-05-12T20:08:14.388Z,6.87
2018-05-12T20:10:41.870Z,9.83
2018-05-12T20:13:10.189Z,6.83
2018-05-12T20:15:37.656Z,10.10
2018-05-12T20:18:05.122Z,6.10
2018-05-12T20:20:32.609Z,6.60
2018-05-12T20:23:00.062Z,9.60
2018-05-12T20:25:28.330Z,9.63
2018-05-12T20:27:55.809Z,13.50
2018-05-12T20:30:24.072Z,8.17
2018-05-12T20:32:51.541Z,11.07
2018-05-12T20:35:19.798Z,9.07
2018-05-12T20:37:47.287Z,10.03
2018-05-12T20:40:14.813Z,12.80
2018-05-12T20:42:42.283Z,12.80
2018-05-12T20:45:10.589Z,10.93
2018-05-12T20:47:38.049Z,7.73
2018-05-12T20:50:05.556Z,9.17
2018-05-12T20:52:33.028Z,8.90
2018-05-12T20:55:01.264Z,9.57
2018-05-12T20:57:28.739Z,11.77
2018-05-12T20:59:56.237Z,10.30
2018-05-12T21:02:23.699Z,8.83
2018-05-12T21:04:51.153Z,8.27
2018-05-12T21:07:18.630Z,13.70
2018-05-12T21:09:46.091Z,9.93
2018-05-12T21:12:13.557Z,12.73
2018-05-12T21:14:41.047Z,10.43
2018-05-12T21:17:08.501Z,8.50
2018-05-12T21:19:36.756Z,8.37
2018-05-12T21:22:04.215Z,8.83
2018-05-12T21:24:33.180Z,9.07
2018-05-12T21:27:00.650Z,9.93
2018-05-12T21:29:28.130Z,11.00
2018-05-12T21:31:55.593Z,9.13
2018-05-12T21:34:23.832Z,9.77
2018-05-12T21:36:51.317Z,7.47
2018-05-12T21:39:18.801Z,9.43
2018-05-12T21:41:47.013Z,8.70
2018-05-12T21:44:14.482Z,8.47
2018-05-12T21:46:41.957Z,6.43
2018-05-12T21:49:09.433Z,8.80
2018-05-12T21:51:37.689Z,8.97
2018-05-12T21:54:05.169Z,8.97
2018-05-12T21:56:32.624Z,13.83
2018-05-12T21:59:00.941Z,8.40
2018-05-12T22:01:28.351Z,8.77
2018-05-12T22:03:55.810Z,10.00
2018-05-12T22:06:23.280Z,8.77
2018-05-12T22:08:50.770Z,7.20
2018-05-12T22:11:18.228Z,8.80
2018-05-12T22:13:45.763Z,12.70
2018-05-12T22:16:13.221Z,9.90
2018-05-12T22:18:41.587Z,11.83
2018-05-12T22:21:09.058Z,10.60
2018-05-12T22:23:36.528Z,8.60
2018-05-12T22:26:03.993Z,15.30
2018-05-12T22:28:31.464Z,12.73
2018-05-12T22:30:58.935Z,7.97
2018-05-12T22:33:26.419Z,13.40
2018-05-12T22:35:54.654Z,8.23
2018-05-12T22:38:22.160Z,11.33
2018-05-12T22:40:49.637Z,16.00
2018-05-12T22:43:17.122Z,15.03
2018-05-12T22:45:44.601Z,11.43
2018-05-12T22:48:12.064Z,8.43
2018-05-12T22:50:40.305Z,8.77
2018-05-12T22:53:07.781Z,8.33
2018-05-12T22:55:36.085Z,8.40
2018-05-12T22:58:04.340Z,17.87
2018-05-12T23:00:32.569Z,9.57
2018-05-12T23:03:00.026Z,9.20
2018-05-12T23:05:27.532Z,10.77
2018-05-12T23:07:55.764Z,10.67
2018-05-12T23:10:23.224Z,9.67
2018-05-12T23:12:50.762Z,10.13
2018-05-12T23:15:18.228Z,10.33
2018-05-12T23:17:45.693Z,8.53
2018-05-12T23:20:13.200Z,9.70
2018-05-12T23:22:47.451Z,8.30
2018-05-12T23:25:14.923Z,9.63
2018-05-12T23:27:42.409Z,9.97
2018-05-12T23:30:09.884Z,8.20
2018-05-12T23:32:38.136Z,11.97
2018-05-12T23:35:05.606Z,11.37
2018-05-12T23:37:33.063Z,10.93
2018-05-12T23:40:00.559Z,10.10
2018-05-12T23:42:28.062Z,11.83
2018-05-12T23:44:55.500Z,11.07
2018-05-12T23:47:22.985Z,10.60
2018-05-12T23:49:50.461Z,10.50
2018-05-12T23:52:18.690Z,11.20
2018-05-12T23:54:46.174Z,13.03
2018-05-12T23:57:14.405Z,12.70
2018-05-12T23:59:41.868Z,11.23
